Time;durP1;ratioP1;P1;durP2;ratioP2;P2;SDS_P1;SDS_P2;PMS_P1;PMS_P2;Temp;Humidity;BMP_temperature;BMP_pressure;BME280_temperature;BME280_humidity;BME280_pressure;Samples;Min_cycle;Max_cycle;Signal;HPM_P1;HPM_P2
2023/06/17 00:00:37;;;;;;;53.65;50.70;;;;;;;;;;5036292;28;20045;-66
2023/06/17 00:03:02;;;;;;;53.25;50.30;;;;;;;;;;5033247;28;20099;-54
2023/06/17 00:05:28;;;;;;;56.90;53.88;;;;;;;;;;5035836;28;20048;-66
2023/06/17 00:07:53;;;;;;;70.00;66.03;;;;;;;;;;5036390;28;20071;-54
2023/06/17 00:10:19;;;;;;;81.85;77.50;;;;;;;;;;5036451;28;20858;-52
2023/06/17 00:12:44;;;;;;;85.60;80.97;;;;;;;;;;5037575;28;20362;-67
2023/06/17 00:15:10;;;;;;;95.28;90.07;;;;;;;;;;5037464;28;20065;-67
2023/06/17 00:17:36;;;;;;;83.53;78.80;;;;;;;;;;5036339;28;20041;-67
2023/06/17 00:20:11;;;;;;;81.03;76.68;;;;;;;;;;5035710;28;20041;-52
2023/06/17 00:22:38;;;;;;;94.25;89.05;;;;;;;;;;5031985;28;20029;-55
2023/06/17 00:25:05;;;;;;;131.20;124.00;;;;;;;;;;5034069;28;20079;-56
2023/06/17 00:27:30;;;;;;;149.95;141.80;;;;;;;;;;5042886;28;20558;-66
2023/06/17 00:29:59;;;;;;;142.93;135.02;;;;;;;;;;5031812;28;20120;-65
2023/06/17 00:32:28;;;;;;;180.00;170.10;;;;;;;;;;5037808;28;20021;-66
2023/06/17 00:34:54;;;;;;;206.25;195.05;;;;;;;;;;5034163;28;20045;-55
2023/06/17 00:37:20;;;;;;;205.77;194.40;;;;;;;;;;5032806;28;20109;-66
2023/06/17 00:39:45;;;;;;;217.38;205.63;;;;;;;;;;5032643;28;20151;-65
2023/06/17 00:42:11;;;;;;;251.07;237.77;;;;;;;;;;5035324;28;20045;-55
2023/06/17 00:44:39;;;;;;;246.00;232.63;;;;;;;;;;5034192;28;20514;-55
2023/06/17 00:47:05;;;;;;;285.83;270.70;;;;;;;;;;5033522;28;20497;-67
2023/06/17 00:49:35;;;;;;;256.23;243.07;;;;;;;;;;5036421;28;20040;-56
2023/06/17 00:52:07;;;;;;;231.30;219.35;;;;;;;;;;5033659;28;20045;-55
2023/06/17 00:54:37;;;;;;;206.75;196.48;;;;;;;;;;5036172;28;20040;-55
2023/06/17 00:57:07;;;;;;;185.07;175.67;;;;;;;;;;5032669;28;20029;-54
2023/06/17 00:59:36;;;;;;;139.93;132.57;;;;;;;;;;5037492;28;20037;-54
2023/06/17 01:02:02;;;;;;;108.40;102.80;;;;;;;;;;5034546;28;23230;-67
2023/06/17 01:04:28;;;;;;;97.03;92.10;;;;;;;;;;5033830;28;20518;-54
2023/06/17 01:07:04;;;;;;;79.55;75.55;;;;;;;;;;5033771;28;20051;-54
2023/06/17 01:09:35;;;;;;;82.53;78.28;;;;;;;;;;5034094;28;20033;-54
2023/06/17 01:12:04;;;;;;;48.47;45.75;;;;;;;;;;5033745;28;20397;-54
2023/06/17 01:14:32;;;;;;;27.48;25.80;;;;;;;;;;5034786;28;20033;-67
2023/06/17 01:16:58;;;;;;;26.20;24.50;;;;;;;;;;5031873;28;20041;-67
2023/06/17 01:19:24;;;;;;;27.42;25.65;;;;;;;;;;5032218;28;20155;-53
2023/06/17 01:21:53;;;;;;;40.70;38.20;;;;;;;;;;5034148;28;20064;-55
2023/06/17 01:24:28;;;;;;;50.78;47.58;;;;;;;;;;5034878;28;20060;-54
2023/06/17 01:26:59;;;;;;;56.90;53.75;;;;;;;;;;5034667;28;20033;-55
2023/06/17 01:29:29;;;;;;;94.22;89.43;;;;;;;;;;5032708;28;20030;-55
2023/06/17 01:31:57;;;;;;;149.95;142.35;;;;;;;;;;5031274;28;20516;-67
2023/06/17 01:34:51;;;;;;;190.43;180.98;;;;;;;;;;5033874;28;20049;-66
2023/06/17 01:37:23;;;;;;;231.65;219.50;;;;;;;;;;5034433;28;20128;-67
2023/06/17 01:39:50;;;;;;;273.17;259.25;;;;;;;;;;5034923;28;20102;-66
2023/06/17 01:42:22;;;;;;;300.38;284.67;;;;;;;;;;5037224;28;20586;-55
2023/06/17 01:44:48;;;;;;;306.60;290.38;;;;;;;;;;5033543;28;20091;-54
2023/06/17 01:47:13;;;;;;;271.80;257.80;;;;;;;;;;5032413;28;20546;-67
2023/06/17 01:49:39;;;;;;;276.48;262.42;;;;;;;;;;5029513;28;20025;-54
2023/06/17 01:52:05;;;;;;;251.95;239.15;;;;;;;;;;5033499;28;20098;-55
2023/06/17 01:54:30;;;;;;;237.73;225.82;;;;;;;;;;5033330;28;20068;-53
2023/06/17 01:56:56;;;;;;;240.52;228.15;;;;;;;;;;5032686;28;20052;-54
2023/06/17 01:59:21;;;;;;;270.55;256.65;;;;;;;;;;5033635;28;20099;-53
2023/06/17 02:01:47;;;;;;;274.33;260.20;;;;;;;;;;4994517;28;1026472;-67
2023/06/17 02:04:12;;;;;;;293.45;278.23;;;;;;;;;;5032698;28;20049;-54
2023/06/17 02:06:38;;;;;;;267.45;253.73;;;;;;;;;;5033524;28;20040;-67
2023/06/17 02:09:04;;;;;;;260.13;246.88;;;;;;;;;;5030774;28;20059;-67
2023/06/17 02:11:29;;;;;;;246.23;233.57;;;;;;;;;;5031347;28;20041;-67
2023/06/17 02:13:54;;;;;;;199.93;189.80;;;;;;;;;;5032232;28;20060;-54
2023/06/17 02:16:20;;;;;;;158.63;150.65;;;;;;;;;;5032514;28;20475;-67
2023/06/17 02:18:47;;;;;;;164.75;156.50;;;;;;;;;;5029999;28;20025;-66
2023/06/17 02:21:13;;;;;;;138.40;131.40;;;;;;;;;;5029057;28;20051;-67
2023/06/17 02:23:38;;;;;;;120.13;114.05;;;;;;;;;;5031774;28;20033;-66
2023/06/17 02:26:03;;;;;;;174.38;165.43;;;;;;;;;;5031028;28;20037;-66
2023/06/17 02:28:29;;;;;;;166.57;158.10;;;;;;;;;;5033308;28;20060;-52
2023/06/17 02:30:54;;;;;;;156.23;148.15;;;;;;;;;;5034201;28;20515;-51
2023/06/17 02:33:19;;;;;;;174.38;165.43;;;;;;;;;;5035294;28;20057;-66
2023/06/17 02:35:46;;;;;;;207.60;196.80;;;;;;;;;;5036125;28;20083;-55
2023/06/17 02:38:13;;;;;;;233.45;220.40;;;;;;;;;;5034447;28;20086;-67
2023/06/17 02:40:39;;;;;;;228.15;216.13;;;;;;;;;;5033388;28;20592;-66
2023/06/17 02:43:04;;;;;;;253.27;239.95;;;;;;;;;;5034692;28;20044;-66
2023/06/17 02:45:30;;;;;;;247.75;234.55;;;;;;;;;;5035603;28;20604;-52
2023/06/17 02:47:56;;;;;;;251.30;237.80;;;;;;;;;;5030482;28;20108;-66
2023/06/17 02:50:23;;;;;;;273.95;259.27;;;;;;;;;;5032337;28;20065;-54
2023/06/17 02:52:55;;;;;;;252.48;238.85;;;;;;;;;;5031631;28;20029;-53
2023/06/17 02:55:21;;;;;;;198.48;188.15;;;;;;;;;;5033780;28;20080;-54
2023/06/17 02:57:47;;;;;;;150.55;142.68;;;;;;;;;;5031110;28;20031;-67
2023/06/17 03:00:13;;;;;;;121.72;115.45;;;;;;;;;;5031608;28;20564;-66
2023/06/17 03:02:38;;;;;;;69.15;65.50;;;;;;;;;;5036796;28;20128;-52
2023/06/17 03:05:06;;;;;;;54.17;51.35;;;;;;;;;;5035900;28;20120;-66
2023/06/17 03:07:36;;;;;;;48.50;45.92;;;;;;;;;;5038543;28;20033;-67
2023/06/17 03:10:05;;;;;;;50.92;48.17;;;;;;;;;;5034145;28;20116;-54
2023/06/17 03:12:30;;;;;;;46.95;44.42;;;;;;;;;;5036915;28;20482;-55
2023/06/17 03:14:57;;;;;;;41.05;38.80;;;;;;;;;;5037715;28;20029;-66
2023/06/17 03:17:24;;;;;;;40.47;37.97;;;;;;;;;;5037564;28;20060;-66
2023/06/17 03:19:50;;;;;;;37.70;35.50;;;;;;;;;;5038723;28;20138;-51
2023/06/17 03:22:15;;;;;;;40.78;38.63;;;;;;;;;;5034119;28;20691;-53
2023/06/17 03:24:41;;;;;;;41.13;39.03;;;;;;;;;;5035876;28;20565;-67
2023/06/17 03:27:06;;;;;;;44.53;42.15;;;;;;;;;;5036673;28;20037;-66
2023/06/17 03:29:34;;;;;;;44.05;41.75;;;;;;;;;;5036946;28;20029;-66
2023/06/17 03:31:59;;;;;;;37.50;35.50;;;;;;;;;;5037154;28;20432;-51
2023/06/17 03:34:25;;;;;;;27.20;25.45;;;;;;;;;;5038381;28;20131;-67
2023/06/17 03:36:50;;;;;;;29.75;27.92;;;;;;;;;;5037540;28;20392;-66
2023/06/17 03:39:15;;;;;;;43.92;41.50;;;;;;;;;;5032054;28;20063;-66
2023/06/17 03:41:42;;;;;;;57.95;55.00;;;;;;;;;;5033235;28;20037;-66
2023/06/17 03:44:07;;;;;;;70.80;67.18;;;;;;;;;;5037843;28;20033;-66
2023/06/17 03:46:32;;;;;;;64.20;60.90;;;;;;;;;;5035997;28;20039;-66
2023/06/17 03:48:58;;;;;;;71.20;67.50;;;;;;;;;;5035450;28;20099;-66
2023/06/17 03:51:23;;;;;;;74.90;71.00;;;;;;;;;;5034341;28;20037;-67
2023/06/17 03:53:48;;;;;;;70.80;67.18;;;;;;;;;;5035834;28;20041;-66
2023/06/17 03:56:14;;;;;;;78.22;74.20;;;;;;;;;;5034505;28;20033;-66
2023/06/17 03:58:40;;;;;;;76.43;72.53;;;;;;;;;;5036014;28;20036;-67
2023/06/17 04:01:07;;;;;;;75.13;71.35;;;;;;;;;;5032254;28;20043;-67
2023/06/17 04:03:34;;;;;;;74.88;71.03;;;;;;;;;;5021234;28;20029;-67
2023/06/17 04:06:00;;;;;;;81.93;77.80;;;;;;;;;;5035977;28;20033;-66
2023/06/17 04:08:27;;;;;;;74.75;70.95;;;;;;;;;;5035969;28;20029;-65
2023/06/17 04:10:52;;;;;;;67.72;63.97;;;;;;;;;;5042908;28;20033;-66
2023/06/17 04:13:18;;;;;;;66.60;63.13;;;;;;;;;;5033276;28;20021;-65
2023/06/17 04:15:47;;;;;;;57.33;54.35;;;;;;;;;;5032852;28;20061;-66
2023/06/17 04:18:12;;;;;;;55.08;52.22;;;;;;;;;;5033624;28;20033;-66
2023/06/17 04:20:39;;;;;;;54.25;51.35;;;;;;;;;;5034951;28;20055;-67
2023/06/17 04:23:04;;;;;;;63.65;60.42;;;;;;;;;;5035152;28;20466;-66
2023/06/17 04:25:32;;;;;;;68.95;65.35;;;;;;;;;;5036387;28;20032;-65
2023/06/17 04:27:58;;;;;;;68.70;65.15;;;;;;;;;;5037783;28;20493;-66
2023/06/17 04:30:25;;;;;;;70.72;67.00;;;;;;;;;;5034432;28;20182;-66
2023/06/17 04:32:50;;;;;;;66.75;63.35;;;;;;;;;;5034701;28;20029;-66
2023/06/17 04:35:17;;;;;;;65.72;62.38;;;;;;;;;;5041578;28;20056;-66
2023/06/17 04:37:43;;;;;;;66.40;62.15;;;;;;;;;;5033194;28;20044;-66
2023/06/17 04:40:11;;;;;;;67.05;63.13;;;;;;;;;;5031196;28;20354;-65
2023/06/17 04:42:44;;;;;;;64.13;60.72;;;;;;;;;;5035038;28;20041;-66
2023/06/17 04:45:10;;;;;;;68.18;64.63;;;;;;;;;;5042890;28;20088;-66
2023/06/17 04:47:35;;;;;;;77.35;73.45;;;;;;;;;;5035022;28;20083;-66
2023/06/17 04:50:01;;;;;;;72.22;68.53;;;;;;;;;;5034398;28;20616;-66
2023/06/17 04:52:30;;;;;;;65.40;62.00;;;;;;;;;;5030376;28;20435;-66
2023/06/17 04:54:55;;;;;;;63.72;60.42;;;;;;;;;;5033471;28;20116;-66
2023/06/17 04:57:21;;;;;;;69.30;65.70;;;;;;;;;;5032718;28;20526;-65
2023/06/17 04:59:46;;;;;;;57.25;54.30;;;;;;;;;;5030896;28;20116;-65
2023/06/17 05:02:13;;;;;;;65.07;61.67;;;;;;;;;;5033161;28;20513;-65
2023/06/17 05:04:38;;;;;;;71.07;67.47;;;;;;;;;;5031356;28;20073;-65
2023/06/17 05:07:04;;;;;;;68.53;64.95;;;;;;;;;;5034830;28;20072;-64
2023/06/17 05:09:29;;;;;;;79.60;74.85;;;;;;;;;;5033856;28;20041;-65
2023/06/17 05:11:55;;;;;;;73.40;69.65;;;;;;;;;;5036100;28;20362;-66
2023/06/17 05:14:20;;;;;;;79.55;75.47;;;;;;;;;;5031524;28;20041;-66
2023/06/17 05:16:45;;;;;;;75.75;71.88;;;;;;;;;;5041996;28;20614;-66
2023/06/17 05:19:11;;;;;;;78.05;74.05;;;;;;;;;;5032485;28;20037;-65
2023/06/17 05:21:36;;;;;;;82.97;78.55;;;;;;;;;;5034309;28;20056;-66
2023/06/17 05:24:02;;;;;;;75.43;71.65;;;;;;;;;;5040807;28;20029;-66
2023/06/17 05:26:27;;;;;;;59.35;56.25;;;;;;;;;;5034588;28;20486;-66
2023/06/17 05:28:53;;;;;;;42.53;40.22;;;;;;;;;;5033708;28;20037;-54
2023/06/17 05:31:19;;;;;;;33.33;31.45;;;;;;;;;;5040645;28;20060;-66
2023/06/17 05:33:44;;;;;;;41.67;39.17;;;;;;;;;;5036442;28;20477;-66
2023/06/17 05:36:10;;;;;;;39.35;37.20;;;;;;;;;;5036323;28;20041;-65
2023/06/17 05:38:35;;;;;;;36.10;33.92;;;;;;;;;;5033600;28;20032;-65
2023/06/17 05:41:01;;;;;;;27.70;26.10;;;;;;;;;;5032010;28;20029;-54
2023/06/17 05:43:27;;;;;;;20.80;19.38;;;;;;;;;;5032366;28;20029;-57
2023/06/17 05:45:52;;;;;;;21.08;19.77;;;;;;;;;;5036013;28;20135;-55
2023/06/17 05:48:18;;;;;;;19.25;18.15;;;;;;;;;;5035417;28;20053;-65
2023/06/17 05:50:43;;;;;;;14.65;13.77;;;;;;;;;;5034695;28;20047;-65
2023/06/17 05:53:08;;;;;;;15.85;14.95;;;;;;;;;;5034202;28;20435;-65
2023/06/17 05:55:34;;;;;;;17.60;16.60;;;;;;;;;;5034585;28;20115;-65
2023/06/17 05:57:59;;;;;;;13.35;12.55;;;;;;;;;;5034841;28;20112;-65
2023/06/17 06:00:25;;;;;;;14.52;13.63;;;;;;;;;;5037982;28;20025;-66
2023/06/17 06:02:50;;;;;;;14.57;13.70;;;;;;;;;;5033946;28;20065;-67
2023/06/17 06:05:16;;;;;;;13.45;12.65;;;;;;;;;;5033757;28;20039;-55
2023/06/17 06:07:43;;;;;;;14.70;13.80;;;;;;;;;;5035729;28;20056;-51
2023/06/17 06:10:09;;;;;;;15.63;14.65;;;;;;;;;;5031063;28;20061;-65
2023/06/17 06:12:35;;;;;;;15.60;14.70;;;;;;;;;;5034396;28;20478;-66
2023/06/17 06:15:00;;;;;;;16.60;15.60;;;;;;;;;;5038789;28;20118;-53
2023/06/17 06:17:26;;;;;;;18.38;17.38;;;;;;;;;;5033245;28;20534;-53
2023/06/17 06:19:51;;;;;;;25.80;24.30;;;;;;;;;;5038634;28;20052;-66
2023/06/17 06:22:18;;;;;;;28.80;27.20;;;;;;;;;;5033261;28;20120;-54
2023/06/17 06:24:43;;;;;;;43.35;41.08;;;;;;;;;;5032849;28;20099;-54
2023/06/17 06:27:08;;;;;;;45.10;42.75;;;;;;;;;;5031471;28;20451;-53
2023/06/17 06:29:34;;;;;;;54.45;51.67;;;;;;;;;;5031592;28;20463;-50
2023/06/17 06:31:59;;;;;;;73.57;69.82;;;;;;;;;;5035107;28;20116;-56
2023/06/17 06:34:24;;;;;;;78.53;74.57;;;;;;;;;;5032176;28;20040;-55
2023/06/17 06:36:50;;;;;;;93.05;88.32;;;;;;;;;;5034688;28;20106;-66
2023/06/17 06:39:15;;;;;;;111.50;105.95;;;;;;;;;;5036890;28;20047;-67
2023/06/17 06:41:41;;;;;;;109.78;104.30;;;;;;;;;;5035130;28;20518;-57
2023/06/17 06:44:06;;;;;;;120.75;114.80;;;;;;;;;;5034580;28;20040;-55
2023/06/17 06:46:32;;;;;;;121.40;115.38;;;;;;;;;;5038285;28;20037;-54
2023/06/17 06:48:58;;;;;;;116.45;110.68;;;;;;;;;;5038506;28;20025;-54
2023/06/17 06:51:23;;;;;;;107.22;101.88;;;;;;;;;;5038586;28;20033;-57
2023/06/17 06:53:49;;;;;;;115.25;109.50;;;;;;;;;;5039864;28;20026;-56
2023/06/17 06:56:14;;;;;;;108.60;103.05;;;;;;;;;;5039376;28;20033;-55
2023/06/17 06:58:40;;;;;;;92.97;88.28;;;;;;;;;;5037540;28;20673;-69
2023/06/17 07:01:05;;;;;;;105.22;99.97;;;;;;;;;;5033088;28;20041;-68
2023/06/17 07:03:32;;;;;;;87.55;83.15;;;;;;;;;;5037460;28;20483;-55
2023/06/17 07:05:57;;;;;;;92.97;88.20;;;;;;;;;;5039592;28;20047;-56
2023/06/17 07:08:24;;;;;;;52.83;50.15;;;;;;;;;;5038494;28;20044;-56
2023/06/17 07:10:50;;;;;;;59.33;56.30;;;;;;;;;;5040273;28;20056;-67
2023/06/17 07:13:17;;;;;;;41.58;39.42;;;;;;;;;;5038627;28;20072;-55
2023/06/17 07:15:43;;;;;;;35.88;33.92;;;;;;;;;;5034591;28;20048;-53
2023/06/17 07:18:09;;;;;;;45.88;43.53;;;;;;;;;;5037956;28;20422;-67
2023/06/17 07:20:35;;;;;;;45.03;42.50;;;;;;;;;;5034867;28;20029;-67
2023/06/17 07:23:00;;;;;;;49.67;47.08;;;;;;;;;;5036867;28;20095;-54
2023/06/17 07:25:26;;;;;;;52.13;49.45;;;;;;;;;;5035192;28;20048;-51
2023/06/17 07:27:51;;;;;;;54.70;51.85;;;;;;;;;;5037224;28;20067;-68
2023/06/17 07:30:17;;;;;;;56.60;53.70;;;;;;;;;;5037606;28;20064;-54
2023/06/17 07:32:42;;;;;;;80.15;76.13;;;;;;;;;;5036555;28;20064;-56
2023/06/17 07:35:08;;;;;;;64.70;61.17;;;;;;;;;;5033815;28;20147;-54
2023/06/17 07:37:33;;;;;;;66.68;63.33;;;;;;;;;;5035927;28;20447;-57
2023/06/17 07:39:58;;;;;;;72.22;68.60;;;;;;;;;;5036367;28;20049;-66
2023/06/17 07:42:24;;;;;;;73.75;70.10;;;;;;;;;;5037398;28;20037;-68
2023/06/17 07:44:49;;;;;;;70.88;67.35;;;;;;;;;;5033814;28;20036;-56
2023/06/17 07:47:15;;;;;;;71.97;68.40;;;;;;;;;;5033865;28;20033;-68
2023/06/17 07:49:40;;;;;;;75.97;72.20;;;;;;;;;;5034785;28;20033;-53
2023/06/17 07:52:06;;;;;;;79.20;75.20;;;;;;;;;;5035186;28;20098;-54
2023/06/17 07:54:35;;;;;;;75.75;72.00;;;;;;;;;;5036917;28;20064;-55
2023/06/17 07:57:01;;;;;;;74.45;70.70;;;;;;;;;;5035476;28;20044;-54
2023/06/17 07:59:27;;;;;;;99.53;94.63;;;;;;;;;;5035070;28;20071;-55
2023/06/17 08:01:52;;;;;;;193.45;184.02;;;;;;;;;;5032506;28;20069;-67
2023/06/17 08:04:17;;;;;;;190.35;181.13;;;;;;;;;;5034479;28;20055;-67
2023/06/17 08:06:44;;;;;;;209.82;199.70;;;;;;;;;;5035593;28;20110;-67
2023/06/17 08:09:09;;;;;;;176.73;167.95;;;;;;;;;;5032679;28;20503;-55
2023/06/17 08:11:34;;;;;;;171.85;163.38;;;;;;;;;;5038113;28;20033;-53
2023/06/17 08:14:00;;;;;;;169.52;161.18;;;;;;;;;;5034652;28;20049;-55
2023/06/17 08:16:25;;;;;;;180.57;171.68;;;;;;;;;;5035436;28;20029;-53
2023/06/17 08:18:50;;;;;;;187.93;178.52;;;;;;;;;;5035623;28;20382;-67
2023/06/17 08:21:16;;;;;;;142.15;135.07;;;;;;;;;;5032713;28;20033;-55
2023/06/17 08:23:41;;;;;;;136.55;129.80;;;;;;;;;;5036007;28;20129;-54
2023/06/17 08:26:07;;;;;;;119.15;113.28;;;;;;;;;;5036741;28;20052;-67
2023/06/17 08:28:32;;;;;;;128.75;122.22;;;;;;;;;;5034501;28;20052;-54
2023/06/17 08:30:57;;;;;;;123.13;117.05;;;;;;;;;;5036419;28;20029;-56
2023/06/17 08:33:23;;;;;;;135.55;128.85;;;;;;;;;;5036047;28;20033;-67
2023/06/17 08:35:48;;;;;;;149.43;142.02;;;;;;;;;;5037360;28;20572;-67
2023/06/17 08:38:13;;;;;;;125.53;119.35;;;;;;;;;;5035820;28;20045;-68
2023/06/17 08:40:44;;;;;;;139.10;132.25;;;;;;;;;;5035625;28;20032;-67
2023/06/17 08:43:10;;;;;;;135.65;128.93;;;;;;;;;;5032837;28;20036;-54
2023/06/17 08:45:37;;;;;;;117.68;111.85;;;;;;;;;;5034590;28;20082;-56
2023/06/17 08:48:02;;;;;;;123.50;117.40;;;;;;;;;;5030678;28;20030;-57
2023/06/17 08:50:29;;;;;;;132.98;126.45;;;;;;;;;;5030924;28;20355;-56
2023/06/17 08:52:56;;;;;;;139.45;132.50;;;;;;;;;;5034739;28;20541;-55
2023/06/17 08:55:21;;;;;;;152.27;144.80;;;;;;;;;;5031538;28;20045;-55
2023/06/17 08:57:51;;;;;;;145.23;137.98;;;;;;;;;;5036521;28;20059;-56
2023/06/17 09:00:17;;;;;;;137.43;130.48;;;;;;;;;;5032718;28;20189;-56
2023/06/17 09:02:44;;;;;;;140.57;133.57;;;;;;;;;;5035793;28;20024;-57
2023/06/17 09:05:09;;;;;;;126.20;119.95;;;;;;;;;;5035550;28;20041;-56
2023/06/17 09:07:37;;;;;;;171.30;162.85;;;;;;;;;;5032173;28;20047;-56
2023/06/17 09:10:06;;;;;;;174.00;165.45;;;;;;;;;;5034441;28;20108;-55
2023/06/17 09:12:38;;;;;;;194.47;184.97;;;;;;;;;;5033141;28;20061;-67
2023/06/17 09:15:13;;;;;;;182.35;173.43;;;;;;;;;;5036413;28;20947;-68
2023/06/17 09:17:39;;;;;;;180.48;171.60;;;;;;;;;;5032895;28;20068;-67
2023/06/17 09:20:10;;;;;;;177.98;169.15;;;;;;;;;;5033490;28;20079;-67
2023/06/17 09:22:37;;;;;;;117.00;111.18;;;;;;;;;;5033076;28;20059;-55
2023/06/17 09:25:03;;;;;;;81.88;77.78;;;;;;;;;;5035137;28;20136;-54
2023/06/17 09:27:29;;;;;;;80.43;76.35;;;;;;;;;;5035643;28;20091;-56
2023/06/17 09:30:06;;;;;;;58.67;55.72;;;;;;;;;;5032121;28;20531;-66
2023/06/17 09:32:42;;;;;;;70.03;66.43;;;;;;;;;;5033759;28;20065;-56
2023/06/17 09:35:16;;;;;;;33.63;31.58;;;;;;;;;;5034584;28;20059;-55
2023/06/17 09:37:52;;;;;;;51.70;49.08;;;;;;;;;;5035049;28;20160;-55
2023/06/17 09:40:18;;;;;;;19.88;18.77;;;;;;;;;;5031132;28;20144;-67
2023/06/17 09:42:46;;;;;;;18.60;17.60;;;;;;;;;;5032722;28;20037;-67
2023/06/17 09:45:19;;;;;;;23.10;21.80;;;;;;;;;;5032416;28;20040;-55
2023/06/17 09:47:52;;;;;;;22.95;21.70;;;;;;;;;;5040552;28;20033;-66
2023/06/17 09:50:20;;;;;;;22.40;21.20;;;;;;;;;;5032614;28;20041;-65
2023/06/17 09:52:45;;;;;;;22.58;21.27;;;;;;;;;;5033273;28;20025;-53
2023/06/17 09:55:10;;;;;;;22.95;21.73;;;;;;;;;;5035854;28;20040;-54
2023/06/17 09:57:36;;;;;;;21.65;20.45;;;;;;;;;;5034348;28;20039;-53
2023/06/17 10:00:13;;;;;;;26.17;24.70;;;;;;;;;;5031987;28;20132;-55
2023/06/17 10:02:40;;;;;;;28.70;27.10;;;;;;;;;;5031095;28;20610;-66
2023/06/17 10:05:11;;;;;;;29.50;27.95;;;;;;;;;;5041839;28;20133;-67
2023/06/17 10:07:39;;;;;;;32.20;30.52;;;;;;;;;;5036599;28;20058;-53
2023/06/17 10:10:09;;;;;;;26.00;24.60;;;;;;;;;;5032165;28;20095;-52
2023/06/17 10:12:36;;;;;;;22.63;21.23;;;;;;;;;;5037387;28;20086;-66
2023/06/17 10:15:03;;;;;;;21.90;20.70;;;;;;;;;;5037841;28;20032;-54
2023/06/17 10:17:32;;;;;;;22.88;21.58;;;;;;;;;;5037430;28;20045;-66
2023/06/17 10:19:58;;;;;;;26.70;25.27;;;;;;;;;;5037991;28;20040;-66
2023/06/17 10:22:26;;;;;;;36.33;34.33;;;;;;;;;;5034275;28;20052;-67
2023/06/17 10:24:51;;;;;;;33.53;31.73;;;;;;;;;;5036603;28;20037;-67
2023/06/17 10:27:20;;;;;;;29.95;28.33;;;;;;;;;;5038452;28;20534;-67
2023/06/17 10:29:48;;;;;;;35.83;33.95;;;;;;;;;;5035853;28;20304;-56
2023/06/17 10:32:24;;;;;;;39.17;37.10;;;;;;;;;;5041130;28;20043;-56
2023/06/17 10:35:05;;;;;;;31.90;30.25;;;;;;;;;;5036802;28;20040;-56
2023/06/17 10:37:31;;;;;;;30.65;28.98;;;;;;;;;;5037165;28;20033;-54
2023/06/17 10:40:21;;;;;;;52.70;50.05;;;;;;;;;;5035962;28;20056;-56
2023/06/17 10:43:01;;;;;;;47.70;45.30;;;;;;;;;;5034318;28;20522;-55
2023/06/17 10:45:30;;;;;;;66.90;63.45;;;;;;;;;;5035452;28;20421;-56
2023/06/17 10:48:20;;;;;;;66.45;63.08;;;;;;;;;;5037110;28;20108;-56
2023/06/17 10:50:50;;;;;;;;;;;;;;;;;;5038418;28;20045;-56
2023/06/17 10:53:18;;;;;;;71.90;68.25;;;;;;;;;;5034399;28;20099;-55
2023/06/17 10:55:45;;;;;;;71.18;67.57;;;;;;;;;;5039381;28;20033;-56
2023/06/17 10:58:10;;;;;;;66.82;63.30;;;;;;;;;;5035525;28;20052;-56
2023/06/17 11:00:36;;;;;;;74.32;70.63;;;;;;;;;;5037671;28;20036;-56
2023/06/17 11:03:01;;;;;;;67.07;63.67;;;;;;;;;;5041023;28;20108;-56
2023/06/17 11:05:34;;;;;;;72.40;68.75;;;;;;;;;;5039069;28;20037;-56
2023/06/17 11:08:00;;;;;;;75.75;71.82;;;;;;;;;;5041608;28;20040;-56
2023/06/17 11:10:26;;;;;;;75.75;71.93;;;;;;;;;;5038584;28;20093;-53
2023/06/17 11:12:52;;;;;;;78.38;74.35;;;;;;;;;;5038345;28;20784;-55
2023/06/17 11:15:18;;;;;;;76.38;72.55;;;;;;;;;;5037967;28;20101;-54
2023/06/17 11:17:43;;;;;;;85.50;81.22;;;;;;;;;;5034751;28;20035;-54
2023/06/17 11:20:11;;;;;;;78.35;74.45;;;;;;;;;;5038979;28;20032;-55
2023/06/17 11:22:39;;;;;;;72.47;68.85;;;;;;;;;;5038455;28;20468;-52
2023/06/17 11:25:05;;;;;;;68.18;64.70;;;;;;;;;;5034306;28;20041;-55
2023/06/17 11:27:31;;;;;;;61.85;58.72;;;;;;;;;;5036900;28;20037;-52
2023/06/17 11:29:57;;;;;;;64.32;61.13;;;;;;;;;;5032397;28;20632;-54
2023/06/17 11:32:23;;;;;;;57.00;54.10;;;;;;;;;;5034512;28;20038;-54
2023/06/17 11:34:51;;;;;;;53.20;50.40;;;;;;;;;;5035262;28;20033;-57
2023/06/17 11:37:18;;;;;;;53.80;51.10;;;;;;;;;;5034126;28;20090;-68
2023/06/17 11:39:44;;;;;;;50.28;47.67;;;;;;;;;;5035553;28;20481;-67
2023/06/17 11:42:10;;;;;;;56.85;53.95;;;;;;;;;;5038187;28;20420;-68
2023/06/17 11:44:36;;;;;;;52.50;49.83;;;;;;;;;;5034752;28;20470;-67
2023/06/17 11:47:04;;;;;;;50.65;48.05;;;;;;;;;;5035087;28;20441;-66
2023/06/17 11:49:29;;;;;;;50.90;48.25;;;;;;;;;;5034159;28;20087;-53
2023/06/17 11:51:59;;;;;;;49.53;46.92;;;;;;;;;;5036345;28;20048;-55
2023/06/17 11:54:29;;;;;;;50.00;47.40;;;;;;;;;;5036450;28;20047;-54
2023/06/17 11:56:55;;;;;;;52.10;49.45;;;;;;;;;;5037921;28;20116;-55
2023/06/17 11:59:21;;;;;;;46.47;44.08;;;;;;;;;;5035814;28;20033;-53
2023/06/17 12:01:47;;;;;;;49.17;46.60;;;;;;;;;;5036595;28;20025;-68
2023/06/17 12:04:14;;;;;;;50.40;47.78;;;;;;;;;;5034584;28;20051;-68
2023/06/17 12:06:42;;;;;;;49.72;47.13;;;;;;;;;;5033525;28;20179;-68
2023/06/17 12:09:08;;;;;;;46.58;44.17;;;;;;;;;;5036232;28;20612;-68
2023/06/17 12:11:37;;;;;;;56.30;53.40;;;;;;;;;;5031751;28;20033;-54
2023/06/17 12:14:11;;;;;;;51.53;48.90;;;;;;;;;;5035277;28;20449;-57
2023/06/17 12:16:38;;;;;;;51.83;49.22;;;;;;;;;;5036522;28;20068;-55
2023/06/17 12:19:07;;;;;;;55.10;52.30;;;;;;;;;;5036351;28;20037;-52
2023/06/17 12:21:34;;;;;;;41.28;39.15;;;;;;;;;;5034456;28;20064;-56
2023/06/17 12:24:01;;;;;;;43.90;41.67;;;;;;;;;;5031145;28;20189;-54
2023/06/17 12:26:27;;;;;;;43.00;40.80;;;;;;;;;;5035991;28;20029;-55
2023/06/17 12:28:54;;;;;;;49.78;47.25;;;;;;;;;;5037197;28;20435;-53
2023/06/17 12:31:20;;;;;;;40.80;38.70;;;;;;;;;;5035985;28;20166;-56
2023/06/17 12:33:48;;;;;;;48.97;46.47;;;;;;;;;;5029003;28;21104;-55
2023/06/17 12:36:15;;;;;;;39.15;37.15;;;;;;;;;;5035834;28;20124;-56
2023/06/17 12:38:41;;;;;;;45.38;43.08;;;;;;;;;;5030533;28;20056;-55
2023/06/17 12:41:07;;;;;;;40.05;37.85;;;;;;;;;;5031649;28;20130;-53
2023/06/17 12:43:32;;;;;;;39.00;37.00;;;;;;;;;;5035741;28;20041;-53
2023/06/17 12:45:59;;;;;;;36.28;34.38;;;;;;;;;;5032440;28;20038;-52
2023/06/17 12:48:28;;;;;;;33.92;32.13;;;;;;;;;;5033747;28;20071;-52
2023/06/17 12:50:54;;;;;;;43.22;41.03;;;;;;;;;;5029243;28;20112;-54
2023/06/17 12:53:20;;;;;;;42.65;40.45;;;;;;;;;;5035271;28;20028;-56
2023/06/17 12:55:45;;;;;;;38.33;36.33;;;;;;;;;;5031725;28;20024;-54
2023/06/17 12:58:11;;;;;;;38.10;36.10;;;;;;;;;;5033965;28;20038;-56
2023/06/17 13:00:37;;;;;;;37.10;35.20;;;;;;;;;;5034814;28;20459;-57
2023/06/17 13:03:03;;;;;;;37.20;35.30;;;;;;;;;;5034767;28;20076;-57
2023/06/17 13:05:28;;;;;;;39.42;37.42;;;;;;;;;;5034389;28;20033;-56
2023/06/17 13:07:54;;;;;;;34.70;32.90;;;;;;;;;;5034145;28;20091;-56
2023/06/17 13:10:20;;;;;;;34.67;32.78;;;;;;;;;;5032670;28;20037;-54
2023/06/17 13:12:46;;;;;;;33.42;31.63;;;;;;;;;;5033093;28;20025;-56
2023/06/17 13:15:11;;;;;;;33.50;31.73;;;;;;;;;;5033262;28;20037;-55
2023/06/17 13:17:36;;;;;;;35.78;33.55;;;;;;;;;;5032242;28;20049;-56
2023/06/17 13:20:03;;;;;;;32.92;31.23;;;;;;;;;;5031889;28;20094;-57
2023/06/17 13:22:31;;;;;;;30.48;28.88;;;;;;;;;;5034524;28;20048;-56
2023/06/17 13:24:59;;;;;;;33.65;31.60;;;;;;;;;;5033195;28;20087;-54
2023/06/17 13:27:25;;;;;;;31.00;29.40;;;;;;;;;;5041715;28;20036;-55
2023/06/17 13:29:51;;;;;;;33.17;31.48;;;;;;;;;;5032437;28;20036;-55
2023/06/17 13:32:16;;;;;;;29.52;27.92;;;;;;;;;;5028902;28;20028;-55
2023/06/17 13:34:42;;;;;;;29.92;28.33;;;;;;;;;;5031932;28;20530;-56
2023/06/17 13:37:07;;;;;;;30.77;29.17;;;;;;;;;;5030359;28;20033;-55
2023/06/17 13:39:33;;;;;;;32.25;30.48;;;;;;;;;;5030426;28;20320;-55
2023/06/17 13:41:58;;;;;;;31.90;30.20;;;;;;;;;;5032730;28;20072;-53
2023/06/17 13:44:23;;;;;;;29.58;27.95;;;;;;;;;;5032669;28;20099;-56
2023/06/17 13:46:49;;;;;;;29.45;27.85;;;;;;;;;;5029787;28;20098;-55
2023/06/17 13:49:15;;;;;;;32.30;30.63;;;;;;;;;;5033442;28;20052;-53
2023/06/17 13:51:40;;;;;;;33.90;32.17;;;;;;;;;;5031827;28;20051;-54
2023/06/17 13:54:06;;;;;;;31.38;29.63;;;;;;;;;;5030704;28;20036;-53
2023/06/17 13:56:31;;;;;;;31.05;29.40;;;;;;;;;;5029494;28;20324;-53
2023/06/17 13:58:57;;;;;;;27.88;26.38;;;;;;;;;;5030657;28;20593;-55
2023/06/17 14:01:23;;;;;;;24.58;23.27;;;;;;;;;;5031505;28;20415;-54
2023/06/17 14:03:49;;;;;;;25.13;23.73;;;;;;;;;;5031898;28;20044;-55
2023/06/17 14:06:14;;;;;;;28.55;27.05;;;;;;;;;;5031591;28;20459;-55
2023/06/17 14:08:40;;;;;;;25.15;23.83;;;;;;;;;;5029078;28;20041;-54